Time;durP1;ratioP1;P1;durP2;ratioP2;P2;SDS_P1;SDS_P2;PMS_P1;PMS_P2;Temp;Humidity;BMP_temperature;BMP_pressure;BME280_temperature;BME280_humidity;BME280_pressure;Samples;Min_cycle;Max_cycle;Signal;HPM_P1;HPM_P2
2021/09/06 00:00:27;;;;;;;25.85;15.93;;;9.80;99.90;;;;;;5060999;28;20012;-44
2021/09/06 00:02:53;;;;;;;31.67;18.27;;;9.80;99.90;;;;;;5068088;28;20021;-44
2021/09/06 00:05:18;;;;;;;30.63;16.85;;;9.80;99.90;;;;;;5068339;28;20100;-48
2021/09/06 00:07:45;;;;;;;27.30;15.85;;;9.80;99.90;;;;;;5067682;28;20509;-44
2021/09/06 00:10:41;;;;;;;24.92;16.67;;;9.70;99.90;;;;;;5068086;28;20529;-44
2021/09/06 00:13:09;;;;;;;30.45;17.33;;;9.70;99.90;;;;;;5065921;28;20037;-44
2021/09/06 00:15:36;;;;;;;30.38;18.73;;;9.70;99.90;;;;;;5066618;28;20487;-45
2021/09/06 00:18:03;;;;;;;29.45;18.13;;;9.60;99.90;;;;;;5067457;28;20402;-44
2021/09/06 00:20:29;;;;;;;29.50;17.77;;;9.60;99.90;;;;;;5067936;28;20020;-46
2021/09/06 00:22:55;;;;;;;29.83;16.83;;;9.60;99.90;;;;;;5058842;28;20065;-44
2021/09/06 00:25:20;;;;;;;32.85;18.75;;;9.60;99.90;;;;;;5059735;28;20106;-45
2021/09/06 00:27:46;;;;;;;27.98;17.30;;;9.60;99.90;;;;;;5060995;28;20026;-46
2021/09/06 00:30:12;;;;;;;27.50;16.65;;;9.50;99.90;;;;;;5058004;28;20174;-46
2021/09/06 00:32:38;;;;;;;30.77;16.27;;;9.50;99.90;;;;;;5068002;28;20039;-46
2021/09/06 00:35:04;;;;;;;34.80;21.00;;;9.50;99.90;;;;;;5067812;28;20032;-45
2021/09/06 00:37:29;;;;;;;34.50;19.23;;;9.60;99.90;;;;;;5057971;28;20047;-44
2021/09/06 00:39:55;;;;;;;27.80;16.92;;;9.50;99.90;;;;;;5065662;28;20079;-45
2021/09/06 00:42:21;;;;;;;33.33;20.02;;;9.50;99.90;;;;;;5064272;28;20025;-46
2021/09/06 00:44:47;;;;;;;30.55;17.40;;;9.50;99.90;;;;;;5053683;28;20017;-46
2021/09/06 00:47:12;;;;;;;31.10;18.30;;;9.50;99.90;;;;;;5067595;28;20346;-46
2021/09/06 00:49:38;;;;;;;33.40;18.13;;;9.50;99.90;;;;;;5067815;28;20128;-45
2021/09/06 00:52:04;;;;;;;28.50;17.80;;;9.50;99.90;;;;;;5066547;28;20033;-45
2021/09/06 00:54:29;;;;;;;39.03;20.90;;;9.50;99.90;;;;;;5070755;28;20081;-48
2021/09/06 00:56:55;;;;;;;35.42;20.50;;;9.50;99.90;;;;;;5071291;28;20113;-46
2021/09/06 00:59:20;;;;;;;36.60;20.63;;;9.50;99.90;;;;;;5061002;28;20031;-45
2021/09/06 01:01:46;;;;;;;33.00;20.63;;;9.50;99.90;;;;;;5062874;28;20123;-46
2021/09/06 01:04:11;;;;;;;29.45;19.27;;;9.50;99.90;;;;;;5071180;28;20068;-45
2021/09/06 01:06:37;;;;;;;32.95;19.08;;;9.50;99.90;;;;;;5069344;28;20562;-45
2021/09/06 01:09:02;;;;;;;30.10;17.08;;;9.50;99.90;;;;;;5071124;28;20028;-47
2021/09/06 01:11:28;;;;;;;26.27;16.98;;;9.40;99.90;;;;;;5071069;28;20028;-45
2021/09/06 01:13:54;;;;;;;30.40;17.45;;;9.40;99.90;;;;;;5069467;28;20048;-48
2021/09/06 01:16:23;;;;;;;30.58;18.02;;;9.40;99.90;;;;;;5070724;28;20481;-46
2021/09/06 01:18:48;;;;;;;31.38;18.95;;;9.30;99.90;;;;;;5070625;28;20025;-45
2021/09/06 01:21:15;;;;;;;27.17;16.08;;;9.30;99.90;;;;;;5070860;28;20478;-47
2021/09/06 01:23:41;;;;;;;29.63;17.48;;;9.30;99.90;;;;;;5062210;28;20017;-45
2021/09/06 01:26:08;;;;;;;27.20;17.20;;;9.30;99.90;;;;;;5061936;28;20052;-46
2021/09/06 01:28:34;;;;;;;30.08;17.42;;;9.30;99.90;;;;;;5069940;28;20013;-45
2021/09/06 01:31:00;;;;;;;24.05;15.35;;;9.20;99.90;;;;;;5070766;28;20024;-45
2021/09/06 01:33:27;;;;;;;27.73;16.20;;;9.20;99.90;;;;;;5057374;28;20384;-46
2021/09/06 01:35:53;;;;;;;36.63;18.75;;;9.10;99.90;;;;;;5068653;28;20035;-47
2021/09/06 01:38:18;;;;;;;31.40;19.40;;;9.20;99.90;;;;;;5069779;28;20386;-46
2021/09/06 01:40:44;;;;;;;35.65;20.83;;;9.20;99.90;;;;;;5059632;28;20107;-47
2021/09/06 01:43:10;;;;;;;33.53;19.20;;;9.30;99.90;;;;;;5062264;28;20036;-45
2021/09/06 01:45:35;;;;;;;35.55;19.33;;;9.20;99.90;;;;;;5060325;28;20025;-46
2021/09/06 01:48:01;;;;;;;34.80;19.05;;;9.20;99.90;;;;;;5058834;28;20025;-46
2021/09/06 01:50:26;;;;;;;36.10;19.45;;;9.10;99.90;;;;;;5070036;28;20037;-45
2021/09/06 01:52:52;;;;;;;40.05;20.80;;;9.20;99.90;;;;;;5046176;28;20060;-45
2021/09/06 01:55:17;;;;;;;39.42;19.23;;;9.10;99.90;;;;;;5062166;28;20029;-45
2021/09/06 01:57:43;;;;;;;42.75;21.92;;;9.20;99.90;;;;;;5069656;28;20029;-46
2021/09/06 02:00:09;;;;;;;36.95;19.45;;;9.20;99.90;;;;;;5065230;28;20120;-45
2021/09/06 02:02:34;;;;;;;30.67;19.30;;;9.20;99.90;;;;;;5065044;28;20078;-45
2021/09/06 02:05:00;;;;;;;33.65;17.75;;;9.20;99.90;;;;;;5058358;28;20063;-45
2021/09/06 02:07:25;;;;;;;35.35;20.05;;;9.10;99.90;;;;;;5051652;28;20056;-46
2021/09/06 02:09:51;;;;;;;33.33;17.85;;;9.10;99.90;;;;;;5050177;28;20060;-46
2021/09/06 02:12:16;;;;;;;32.55;19.10;;;9.10;99.90;;;;;;5049956;28;20371;-47
2021/09/06 02:14:42;;;;;;;35.03;21.02;;;9.10;99.90;;;;;;5050049;28;20037;-46
2021/09/06 02:17:07;;;;;;;32.17;19.13;;;9.00;99.90;;;;;;5039475;28;20530;-45
2021/09/06 02:19:33;;;;;;;38.10;20.35;;;9.00;99.90;;;;;;5048314;28;20514;-46
2021/09/06 02:21:58;;;;;;;34.95;19.75;;;9.00;99.90;;;;;;5053947;28;20039;-45
2021/09/06 02:24:26;;;;;;;36.08;19.65;;;8.90;99.90;;;;;;5062134;28;20089;-46
2021/09/06 02:26:51;;;;;;;32.10;18.08;;;8.90;99.90;;;;;;5068854;28;20044;-46
2021/09/06 02:29:17;;;;;;;35.55;19.58;;;8.90;99.90;;;;;;5061719;28;20505;-46
2021/09/06 02:31:43;;;;;;;35.75;19.70;;;8.90;99.90;;;;;;5061394;28;20029;-45
2021/09/06 02:34:08;;;;;;;33.08;18.23;;;8.90;99.90;;;;;;5069880;28;20429;-45
2021/09/06 02:36:34;;;;;;;33.03;19.40;;;8.80;99.90;;;;;;5068613;28;20082;-46
2021/09/06 02:39:00;;;;;;;37.22;21.05;;;8.90;99.90;;;;;;5063996;28;20030;-46
2021/09/06 02:41:25;;;;;;;46.70;21.75;;;8.80;99.90;;;;;;5059194;28;20047;-45
2021/09/06 02:43:51;;;;;;;50.35;25.48;;;8.90;99.90;;;;;;5069288;28;20057;-46
2021/09/06 02:46:16;;;;;;;49.78;25.10;;;8.90;99.90;;;;;;5057847;28;20032;-46
2021/09/06 02:48:42;;;;;;;44.13;23.25;;;9.00;99.90;;;;;;5065133;28;20020;-46
2021/09/06 02:51:07;;;;;;;36.03;21.13;;;8.90;99.90;;;;;;5067668;28;20432;-47
2021/09/06 02:53:33;;;;;;;38.17;20.35;;;8.90;99.90;;;;;;5067935;28;20032;-46
2021/09/06 02:55:58;;;;;;;34.05;19.10;;;8.80;99.90;;;;;;5069110;28;20037;-47
2021/09/06 02:58:24;;;;;;;38.95;19.88;;;8.80;99.90;;;;;;5068495;28;20103;-45
2021/09/06 03:00:49;;;;;;;35.85;20.05;;;8.80;99.90;;;;;;5068825;28;20028;-46
2021/09/06 03:03:15;;;;;;;36.35;19.05;;;8.80;99.90;;;;;;5068905;28;20036;-45
2021/09/06 03:05:40;;;;;;;36.00;20.08;;;8.80;99.90;;;;;;5068784;28;20119;-46
2021/09/06 03:08:06;;;;;;;38.28;21.15;;;8.70;99.90;;;;;;5068538;28;20021;-48
2021/09/06 03:10:31;;;;;;;40.85;21.17;;;8.70;99.90;;;;;;5031549;28;20052;-48
2021/09/06 03:12:57;;;;;;;37.03;20.60;;;8.70;99.90;;;;;;5041219;28;20545;-46
2021/09/06 03:15:23;;;;;;;35.55;19.95;;;8.70;99.90;;;;;;5040480;28;20100;-46
2021/09/06 03:17:48;;;;;;;36.95;19.02;;;8.70;99.90;;;;;;5035385;28;20040;-46
2021/09/06 03:20:14;;;;;;;37.00;19.85;;;8.60;99.90;;;;;;5038468;28;20275;-46
2021/09/06 03:22:39;;;;;;;40.85;23.60;;;8.60;99.90;;;;;;5035247;28;20025;-47
2021/09/06 03:25:05;;;;;;;40.22;22.10;;;8.70;99.90;;;;;;5041145;28;20049;-45
2021/09/06 03:27:31;;;;;;;41.25;20.85;;;8.70;99.90;;;;;;5040405;28;20017;-47
2021/09/06 03:29:57;;;;;;;36.53;21.17;;;8.70;99.90;;;;;;5041794;28;20360;-46
2021/09/06 03:32:22;;;;;;;34.95;19.77;;;8.60;99.90;;;;;;5041087;28;20260;-46
2021/09/06 03:34:48;;;;;;;34.47;18.40;;;8.60;99.90;;;;;;5037696;28;20029;-45
2021/09/06 03:37:13;;;;;;;44.42;22.35;;;8.60;99.90;;;;;;5038371;28;20111;-46
2021/09/06 03:39:39;;;;;;;34.78;18.55;;;8.60;99.90;;;;;;5037432;28;20029;-45
2021/09/06 03:42:05;;;;;;;36.35;19.48;;;8.60;99.90;;;;;;5041673;28;20028;-45
2021/09/06 03:44:30;;;;;;;35.90;19.15;;;8.60;99.90;;;;;;5041040;28;20053;-45
2021/09/06 03:46:56;;;;;;;36.67;20.80;;;8.50;99.90;;;;;;5040321;28;20071;-46
2021/09/06 03:49:21;;;;;;;33.58;18.85;;;8.50;99.90;;;;;;5040841;28;20273;-45
2021/09/06 03:51:47;;;;;;;36.13;18.73;;;8.50;99.90;;;;;;5037805;28;20074;-46
2021/09/06 03:54:12;;;;;;;35.80;20.50;;;8.50;99.90;;;;;;5039154;28;20440;-46
2021/09/06 03:56:38;;;;;;;34.80;19.55;;;8.50;99.90;;;;;;5036473;28;20033;-47
2021/09/06 03:59:04;;;;;;;31.27;19.00;;;8.40;99.90;;;;;;5038046;28;20033;-49
2021/09/06 04:01:29;;;;;;;34.00;18.75;;;8.50;99.90;;;;;;5040005;28;20025;-46
2021/09/06 04:03:55;;;;;;;32.88;19.08;;;8.50;99.90;;;;;;5056331;28;20474;-46
2021/09/06 04:06:21;;;;;;;33.92;19.10;;;8.40;99.90;;;;;;5046452;28;20557;-45
2021/09/06 04:08:46;;;;;;;46.72;23.50;;;8.40;99.90;;;;;;5046347;28;20025;-46
2021/09/06 04:11:12;;;;;;;40.78;22.42;;;8.50;99.90;;;;;;5046515;28;20452;-45
2021/09/06 04:13:37;;;;;;;38.15;21.20;;;8.50;99.90;;;;;;5052987;28;20517;-46
2021/09/06 04:16:04;;;;;;;35.25;19.40;;;8.40;99.90;;;;;;5057676;28;20374;-47
2021/09/06 04:18:30;;;;;;;42.78;22.40;;;8.40;99.90;;;;;;5057928;28;20026;-45
2021/09/06 04:20:56;;;;;;;32.67;18.25;;;8.40;99.90;;;;;;5055796;28;20155;-47
2021/09/06 04:23:22;;;;;;;39.78;21.70;;;8.40;99.90;;;;;;5068042;28;20176;-45
2021/09/06 04:25:47;;;;;;;40.13;21.42;;;8.40;99.90;;;;;;5068114;28;20017;-45
2021/09/06 04:28:13;;;;;;;42.38;20.35;;;8.40;99.90;;;;;;5068463;28;20035;-45
2021/09/06 04:30:39;;;;;;;39.15;20.98;;;8.30;99.90;;;;;;5071871;28;20031;-45
2021/09/06 04:33:04;;;;;;;42.45;21.00;;;8.30;99.90;;;;;;5050793;28;20497;-46
2021/09/06 04:35:30;;;;;;;33.60;19.80;;;8.30;99.90;;;;;;5051859;28;20032;-45
2021/09/06 04:37:56;;;;;;;42.85;22.88;;;8.30;99.90;;;;;;5051072;28;20506;-46
2021/09/06 04:40:21;;;;;;;40.60;21.35;;;8.30;99.90;;;;;;5049247;28;20072;-46
2021/09/06 04:42:47;;;;;;;41.67;20.63;;;8.30;99.90;;;;;;5057938;28;20025;-46
2021/09/06 04:45:12;;;;;;;39.50;19.83;;;8.30;99.90;;;;;;5072264;28;20485;-46
2021/09/06 04:47:38;;;;;;;37.78;19.98;;;8.30;99.90;;;;;;5070010;28;20021;-46
2021/09/06 04:50:04;;;;;;;36.60;19.30;;;8.30;99.90;;;;;;5063526;28;20027;-45
2021/09/06 04:52:29;;;;;;;39.88;21.13;;;8.30;99.90;;;;;;5066531;28;20033;-46
2021/09/06 04:54:55;;;;;;;39.30;20.00;;;8.40;99.90;;;;;;5072667;28;20029;-48
2021/09/06 04:57:20;;;;;;;33.55;18.45;;;8.40;99.90;;;;;;5070205;28;20031;-46
2021/09/06 04:59:46;;;;;;;33.15;17.95;;;8.50;99.90;;;;;;5055452;28;20074;-48
2021/09/06 05:02:11;;;;;;;34.00;18.15;;;8.50;99.90;;;;;;5062764;28;20175;-46
2021/09/06 05:04:37;;;;;;;32.70;18.42;;;8.50;99.90;;;;;;5070606;28;20475;-46
2021/09/06 05:07:02;;;;;;;31.70;17.15;;;8.50;99.90;;;;;;5070253;28;20024;-46
2021/09/06 05:09:28;;;;;;;26.00;16.83;;;8.50;99.90;;;;;;5062628;28;20040;-45
2021/09/06 05:11:53;;;;;;;30.65;16.15;;;8.50;99.90;;;;;;5052345;28;20064;-48
2021/09/06 05:14:19;;;;;;;34.08;19.45;;;8.60;99.90;;;;;;5046056;28;20454;-46
2021/09/06 05:16:44;;;;;;;32.10;17.38;;;8.60;99.90;;;;;;5039376;28;20083;-46
2021/09/06 05:19:10;;;;;;;35.33;17.83;;;8.70;99.90;;;;;;5038342;28;20025;-47
2021/09/06 05:21:35;;;;;;;34.60;17.35;;;8.70;99.90;;;;;;5040357;28;20029;-45
2021/09/06 05:24:02;;;;;;;29.77;17.50;;;8.80;99.90;;;;;;5037367;28;20033;-44
2021/09/06 05:26:28;;;;;;;34.10;17.20;;;8.80;99.90;;;;;;5054687;28;20032;-45
2021/09/06 05:28:54;;;;;;;27.55;16.27;;;8.80;99.90;;;;;;5050498;28;20393;-47
2021/09/06 05:31:19;;;;;;;30.55;17.13;;;8.80;99.90;;;;;;5044174;28;20516;-46
2021/09/06 05:33:45;;;;;;;32.50;18.98;;;8.90;99.90;;;;;;5055980;28;20028;-46
2021/09/06 05:36:13;;;;;;;27.75;16.80;;;8.90;99.90;;;;;;5070500;28;20035;-49
2021/09/06 05:38:39;;;;;;;34.22;18.05;;;8.90;99.90;;;;;;5069264;28;20104;-46
2021/09/06 05:41:06;;;;;;;35.45;19.23;;;9.00;99.90;;;;;;5062116;28;20020;-45
2021/09/06 05:43:31;;;;;;;30.55;18.17;;;9.10;99.90;;;;;;5045512;28;21255;-46
2021/09/06 05:45:56;;;;;;;32.22;17.83;;;9.10;99.90;;;;;;5040890;28;20060;-49
2021/09/06 05:48:22;;;;;;;38.67;21.17;;;9.20;99.90;;;;;;5042168;28;20066;-47
2021/09/06 05:50:48;;;;;;;43.95;23.02;;;9.30;99.90;;;;;;5041903;28;20030;-46
2021/09/06 05:53:15;;;;;;;36.80;20.08;;;9.30;99.90;;;;;;5044633;28;20111;-46
2021/09/06 05:55:41;;;;;;;37.85;20.20;;;9.40;99.90;;;;;;5040445;28;20358;-46
2021/09/06 05:58:07;;;;;;;34.47;19.83;;;9.50;99.90;;;;;;5035533;28;20099;-46
2021/09/06 06:00:32;;;;;;;50.95;24.58;;;9.50;99.90;;;;;;5061227;28;20036;-46
2021/09/06 06:02:58;;;;;;;46.33;24.52;;;9.60;99.90;;;;;;5057189;28;20025;-45
2021/09/06 06:05:23;;;;;;;45.38;23.98;;;9.60;99.90;;;;;;5055798;28;20021;-46
2021/09/06 06:07:49;;;;;;;44.85;22.08;;;9.70;99.90;;;;;;5048927;28;20036;-46
2021/09/06 06:10:14;;;;;;;41.53;21.92;;;9.70;99.90;;;;;;5061204;28;20021;-46
2021/09/06 06:12:40;;;;;;;40.95;20.58;;;9.80;99.90;;;;;;5070579;28;20470;-46
2021/09/06 06:15:06;;;;;;;39.75;21.05;;;9.90;99.90;;;;;;5047269;28;20130;-52
2021/09/06 06:17:31;;;;;;;41.03;21.73;;;10.00;99.90;;;;;;5050657;28;20024;-46
2021/09/06 06:19:57;;;;;;;50.67;25.05;;;10.00;99.90;;;;;;5049879;28;20068;-46
2021/09/06 06:22:23;;;;;;;45.90;21.77;;;10.10;99.90;;;;;;5060721;28;20055;-48
2021/09/06 06:24:49;;;;;;;36.22;19.08;;;10.10;99.90;;;;;;5061005;28;20078;-46
2021/09/06 06:27:14;;;;;;;40.95;22.92;;;10.20;99.90;;;;;;5050033;28;20025;-46
2021/09/06 06:29:40;;;;;;;36.53;19.45;;;10.30;99.90;;;;;;5052451;28;20025;-46
2021/09/06 06:32:06;;;;;;;37.25;20.77;;;10.30;99.90;;;;;;5048845;28;20493;-46
2021/09/06 06:34:32;;;;;;;35.25;20.30;;;10.40;99.90;;;;;;5048636;28;20541;-46
2021/09/06 06:36:57;;;;;;;37.22;20.90;;;10.50;99.90;;;;;;5057904;28;20032;-48
2021/09/06 06:39:23;;;;;;;32.55;19.75;;;10.60;99.90;;;;;;5053230;28;20017;-48
2021/09/06 06:41:50;;;;;;;36.78;20.90;;;10.70;99.90;;;;;;5054156;28;20035;-46
2021/09/06 06:44:15;;;;;;;32.22;19.58;;;10.70;99.90;;;;;;5062744;28;20055;-47
2021/09/06 06:46:41;;;;;;;43.47;24.65;;;10.80;99.90;;;;;;5056494;28;20040;-54
2021/09/06 06:49:06;;;;;;;35.25;21.10;;;10.90;99.90;;;;;;5061887;28;20510;-50
2021/09/06 06:51:33;;;;;;;36.75;19.70;;;10.90;99.90;;;;;;5066848;28;20029;-49
2021/09/06 06:53:58;;;;;;;42.67;23.77;;;11.00;99.90;;;;;;5059375;28;20060;-46
2021/09/06 06:56:24;;;;;;;38.53;20.58;;;11.10;99.90;;;;;;5069399;28;20052;-47
2021/09/06 06:58:49;;;;;;;41.33;21.50;;;11.20;99.90;;;;;;5063997;28;20037;-46
2021/09/06 07:01:15;;;;;;;29.60;19.33;;;11.30;99.90;;;;;;5058776;28;20079;-46
2021/09/06 07:03:41;;;;;;;32.53;20.48;;;11.40;99.90;;;;;;5061704;28;20127;-48
2021/09/06 07:06:06;;;;;;;40.65;22.23;;;11.50;99.90;;;;;;5055958;28;20422;-50
2021/09/06 07:08:32;;;;;;;38.58;22.20;;;11.60;99.90;;;;;;5054819;28;20478;-46
2021/09/06 07:10:57;;;;;;;44.92;23.77;;;11.70;99.90;;;;;;5041986;28;20112;-46
2021/09/06 07:13:22;;;;;;;37.67;22.80;;;11.80;99.90;;;;;;5049965;28;20107;-46
2021/09/06 07:15:48;;;;;;;29.52;18.73;;;11.90;99.90;;;;;;5053224;28;20033;-46
2021/09/06 07:18:13;;;;;;;27.35;18.10;;;12.10;99.90;;;;;;5060998;28;20417;-46
2021/09/06 07:20:39;;;;;;;29.05;17.65;;;12.20;99.90;;;;;;5061122;28;20565;-47
2021/09/06 07:23:04;;;;;;;24.63;16.38;;;12.40;99.90;;;;;;5050276;28;20020;-47
2021/09/06 07:25:30;;;;;;;26.83;16.17;;;12.70;99.90;;;;;;5059963;28;20024;-49
2021/09/06 07:27:56;;;;;;;24.40;15.90;;;13.10;99.90;;;;;;5060240;28;20078;-46
2021/09/06 07:30:21;;;;;;;20.35;14.63;;;13.60;99.90;;;;;;5062695;28;20025;-47
2021/09/06 07:32:48;;;;;;;19.50;14.35;;;14.00;99.90;;;;;;5057781;28;20027;-46
2021/09/06 07:35:14;;;;;;;19.40;13.80;;;14.30;99.90;;;;;;5061774;28;20035;-51
2021/09/06 07:37:40;;;;;;;18.63;13.30;;;14.50;99.90;;;;;;5062193;28;20033;-46
2021/09/06 07:40:10;;;;;;;21.52;14.75;;;14.50;99.90;;;;;;5059186;28;20096;-50
2021/09/06 07:42:35;;;;;;;21.70;14.50;;;14.50;99.90;;;;;;5069623;28;20453;-47
2021/09/06 07:45:01;;;;;;;23.73;14.85;;;14.40;99.90;;;;;;5051315;28;20103;-46
2021/09/06 07:47:26;;;;;;;20.92;14.18;;;14.40;99.90;;;;;;5062966;28;20065;-47
2021/09/06 07:49:52;;;;;;;20.67;13.57;;;14.60;99.90;;;;;;5056564;28;20021;-46
2021/09/06 07:52:17;;;;;;;20.40;13.40;;;15.10;99.90;;;;;;5062281;28;20140;-47
2021/09/06 07:54:43;;;;;;;16.65;12.10;;;15.50;99.90;;;;;;5063723;28;20081;-49
2021/09/06 07:57:08;;;;;;;21.15;11.88;;;16.10;99.90;;;;;;5058916;28;20029;-47
2021/09/06 07:59:34;;;;;;;15.48;12.23;;;16.70;99.90;;;;;;5067476;28;20036;-46
2021/09/06 08:01:59;;;;;;;26.95;13.13;;;17.40;99.90;;;;;;5050411;28;20026;-46
2021/09/06 08:04:26;;;;;;;21.20;12.18;;;17.80;99.90;;;;;;5062656;28;20523;-49
2021/09/06 08:06:52;;;;;;;14.45;10.57;;;18.10;99.90;;;;;;5067621;28;20115;-48
2021/09/06 08:09:17;;;;;;;19.17;12.18;;;18.50;99.90;;;;;;5065668;28;20025;-47
2021/09/06 08:11:46;;;;;;;18.40;12.18;;;18.80;99.90;;;;;;5068572;28;20427;-47
2021/09/06 08:14:12;;;;;;;16.02;10.40;;;19.00;99.90;;;;;;5051387;28;20055;-47
2021/09/06 08:16:38;;;;;;;11.80;8.77;;;19.10;99.90;;;;;;5052366;28;20060;-47
2021/09/06 08:19:04;;;;;;;15.02;9.95;;;19.60;99.90;;;;;;5056494;28;20479;-47
2021/09/06 08:21:30;;;;;;;13.07;9.98;;;20.60;99.90;;;;;;5066199;28;20028;-50
2021/09/06 08:23:57;;;;;;;13.32;10.75;;;22.00;99.90;;;;;;5059865;28;20013;-49
2021/09/06 08:26:23;;;;;;;14.48;11.02;;;23.40;99.00;;;;;;5064486;28;20021;-45
2021/09/06 08:28:49;;;;;;;10.63;8.75;;;24.40;96.00;;;;;;5056997;28;20025;-46
2021/09/06 08:31:14;;;;;;;12.38;9.13;;;25.00;93.50;;;;;;5054838;28;20072;-46
2021/09/06 08:33:40;;;;;;;10.82;8.18;;;26.20;90.20;;;;;;5044263;28;20490;-47
2021/09/06 08:36:09;;;;;;;13.20;9.73;;;26.70;87.10;;;;;;5061952;28;20058;-45
2021/09/06 08:38:34;;;;;;;13.30;7.90;;;27.50;82.30;;;;;;5065903;28;20055;-46
2021/09/06 08:41:01;;;;;;;9.65;8.18;;;27.90;78.90;;;;;;5060503;28;20085;-46
2021/09/06 08:43:27;;;;;;;8.98;7.75;;;28.50;75.80;;;;;;5071043;28;20050;-46
2021/09/06 08:45:53;;;;;;;10.23;8.75;;;29.20;71.00;;;;;;5068752;28;20497;-47
2021/09/06 08:48:19;;;;;;;10.40;9.30;;;29.40;70.20;;;;;;5045123;28;20024;-47
2021/09/06 08:50:44;;;;;;;10.55;8.65;;;29.10;66.90;;;;;;5061172;28;20028;-47
2021/09/06 08:53:10;;;;;;;12.57;8.60;;;29.60;68.70;;;;;;5071017;28;20017;-48
2021/09/06 08:55:37;;;;;;;9.45;8.32;;;29.70;68.30;;;;;;5061000;28;20021;-48
2021/09/06 08:58:03;;;;;;;10.57;8.48;;;30.20;66.80;;;;;;5069599;28;20474;-46
2021/09/06 09:00:30;;;;;;;10.73;9.40;;;30.90;64.30;;;;;;5071049;28;20020;-46
2021/09/06 09:02:56;;;;;;;9.75;8.55;;;31.30;63.70;;;;;;5041073;28;20032;-47
2021/09/06 09:05:21;;;;;;;14.52;10.60;;;32.00;59.80;;;;;;5061963;28;20017;-47
2021/09/06 09:07:47;;;;;;;11.18;9.55;;;32.20;58.10;;;;;;5070070;28;20052;-46
2021/09/06 09:10:28;;;;;;;11.60;9.85;;;32.30;58.60;;;;;;5070235;28;20025;-47
2021/09/06 09:13:06;;;;;;;12.27;9.10;;;32.00;58.50;;;;;;5070628;28;20154;-47
2021/09/06 09:15:33;;;;;;;14.05;10.65;;;32.20;59.70;;;;;;5070336;28;20031;-46
2021/09/06 09:17:59;;;;;;;10.45;9.25;;;32.70;57.90;;;;;;5043105;28;20026;-47
2021/09/06 09:20:42;;;;;;;12.63;11.27;;;32.90;57.70;;;;;;5061674;28;20021;-48
2021/09/06 09:23:08;;;;;;;11.93;10.65;;;33.00;55.40;;;;;;5070046;28;20033;-49
2021/09/06 09:25:34;;;;;;;12.55;10.90;;;33.30;52.80;;;;;;5057537;28;20020;-49
2021/09/06 09:28:00;;;;;;;12.48;11.18;;;33.70;53.50;;;;;;5047725;28;20112;-47
2021/09/06 09:30:29;;;;;;;17.65;12.02;;;34.00;52.00;;;;;;5058916;28;20024;-47
2021/09/06 09:33:13;;;;;;;12.93;11.13;;;34.00;52.10;;;;;;5050673;28;20078;-48
2021/09/06 09:35:39;;;;;;;11.20;10.10;;;33.20;51.00;;;;;;5048859;28;20084;-47
2021/09/06 09:38:07;;;;;;;11.95;9.85;;;32.60;53.70;;;;;;5060631;28;20013;-46
2021/09/06 09:40:39;;;;;;;14.30;11.63;;;33.40;53.40;;;;;;5061449;28;20116;-46
2021/09/06 09:43:06;;;;;;;13.05;10.60;;;33.60;52.70;;;;;;5057827;28;20036;-47
2021/09/06 09:45:33;;;;;;;11.60;10.10;;;34.00;52.00;;;;;;5048835;28;20238;-48
2021/09/06 09:48:00;;;;;;;12.50;11.15;;;34.40;52.60;;;;;;5048605;28;20047;-49
2021/09/06 09:50:29;;;;;;;12.20;10.90;;;34.40;51.70;;;;;;5062788;28;20070;-47
2021/09/06 09:52:55;;;;;;;12.50;10.52;;;34.30;51.00;;;;;;5071542;28;20734;-47
2021/09/06 09:55:23;;;;;;;16.50;11.75;;;34.50;50.20;;;;;;5068570;28;20055;-49
2021/09/06 09:57:48;;;;;;;13.40;11.68;;;34.80;50.70;;;;;;5051049;28;20029;-47
2021/09/06 10:00:15;;;;;;;16.75;11.48;;;34.60;50.00;;;;;;5043722;28;20029;-49
2021/09/06 10:02:55;;;;;;;13.38;11.50;;;34.80;50.30;;;;;;5043913;28;20650;-47
2021/09/06 10:05:32;;;;;;;12.00;10.68;;;35.10;49.80;;;;;;5041999;28;20075;-48
2021/09/06 10:08:01;;;;;;;14.35;11.57;;;35.00;50.40;;;;;;5043699;28;20082;-48
2021/09/06 10:10:26;;;;;;;11.20;9.98;;;35.10;50.00;;;;;;5040290;28;20598;-48
2021/09/06 10:13:06;;;;;;;12.77;11.15;;;35.00;48.90;;;;;;5056153;28;20040;-49
2021/09/06 10:15:33;;;;;;;14.07;11.35;;;34.80;47.70;;;;;;5066241;28;20024;-46
2021/09/06 10:18:12;;;;;;;14.63;11.35;;;34.40;48.70;;;;;;5057662;28;20120;-47
2021/09/06 10:20:37;;;;;;;13.63;11.43;;;34.10;48.10;;;;;;5045340;28;20053;-49
2021/09/06 10:23:06;;;;;;;13.98;11.13;;;34.40;48.20;;;;;;5043661;28;20490;-48
2021/09/06 10:25:35;;;;;;;16.90;12.38;;;34.90;49.30;;;;;;5046115;28;20017;-46
2021/09/06 10:28:05;;;;;;;14.82;11.50;;;34.90;46.00;;;;;;5033890;28;20412;-47
2021/09/06 10:30:36;;;;;;;16.13;11.30;;;34.60;48.00;;;;;;5053605;28;20645;-46
2021/09/06 10:33:02;;;;;;;14.27;11.15;;;35.20;48.00;;;;;;5049432;28;20063;-47
2021/09/06 10:35:28;;;;;;;12.82;11.45;;;35.10;48.70;;;;;;5057665;28;20033;-50
2021/09/06 10:37:59;;;;;;;13.02;11.18;;;34.70;46.10;;;;;;5061567;28;20024;-49
2021/09/06 10:40:27;;;;;;;14.07;11.73;;;34.60;48.00;;;;;;5061786;28;20098;-49
2021/09/06 10:42:53;;;;;;;12.68;11.20;;;35.50;45.70;;;;;;5057797;28;20020;-46
2021/09/06 10:45:20;;;;;;;14.93;12.02;;;34.90;47.20;;;;;;5070518;28;20031;-47
2021/09/06 10:47:56;;;;;;;13.18;11.73;;;34.20;48.60;;;;;;5052240;28;20022;-47
2021/09/06 10:50:22;;;;;;;16.27;11.50;;;33.90;49.00;;;;;;5062006;28;20020;-49
2021/09/06 10:52:49;;;;;;;12.38;11.05;;;34.30;47.70;;;;;;5070427;28;20103;-49
2021/09/06 10:55:17;;;;;;;14.35;10.90;;;35.00;49.00;;;;;;5069418;28;20048;-47
2021/09/06 10:57:45;;;;;;;14.70;10.75;;;34.70;47.50;;;;;;5068633;28;20476;-47
2021/09/06 11:00:23;;;;;;;12.00;10.75;;;34.20;49.50;;;;;;5069187;28;20402;-48
2021/09/06 11:02:53;;;;;;;17.53;11.77;;;34.10;49.70;;;;;;5051741;28;20013;-49
2021/09/06 11:05:23;;;;;;;13.00;11.15;;;33.70;51.10;;;;;;5061434;28;20020;-47
2021/09/06 11:07:49;;;;;;;12.13;10.18;;;33.40;50.30;;;;;;5068090;28;20020;-49
2021/09/06 11:10:22;;;;;;;13.57;11.55;;;33.00;51.40;;;;;;5070402;28;20056;-46
2021/09/06 11:12:56;;;;;;;13.90;12.43;;;32.70;50.20;;;;;;5068707;28;20036;-46
2021/09/06 11:15:23;;;;;;;13.27;11.18;;;32.30;51.30;;;;;;5068107;28;20029;-46
2021/09/06 11:17:56;;;;;;;13.30;11.90;;;32.30;50.80;;;;;;5067264;28;20024;-46
2021/09/06 11:20:21;;;;;;;13.02;11.65;;;31.90;51.40;;;;;;5056358;28;20402;-47
2021/09/06 11:22:47;;;;;;;16.65;12.13;;;31.60;52.50;;;;;;5053983;28;20029;-46
2021/09/06 11:25:21;;;;;;;15.50;11.75;;;31.10;52.20;;;;;;5066871;28;20120;-46
2021/09/06 11:27:49;;;;;;;15.15;11.60;;;30.60;53.70;;;;;;5057028;28;20034;-48
2021/09/06 11:30:22;;;;;;;14.35;11.68;;;30.40;54.00;;;;;;5059974;28;20020;-47
2021/09/06 11:32:48;;;;;;;15.43;10.93;;;30.50;55.20;;;;;;5053916;28;20067;-47
2021/09/06 11:35:14;;;;;;;16.48;10.65;;;30.70;54.20;;;;;;5059762;28;20491;-46
2021/09/06 11:37:39;;;;;;;18.35;13.30;;;31.10;52.90;;;;;;5067627;28;20051;-46
2021/09/06 11:40:07;;;;;;;14.80;12.00;;;30.40;51.70;;;;;;5068157;28;20474;-47
2021/09/06 11:42:34;;;;;;;16.15;11.05;;;31.00;52.10;;;;;;5067350;28;20645;-49
2021/09/06 11:45:01;;;;;;;13.48;10.57;;;31.70;52.60;;;;;;5055861;28;20032;-48
2021/09/06 11:47:28;;;;;;;12.48;10.63;;;32.20;52.60;;;;;;5050077;28;20017;-47
2021/09/06 11:49:55;;;;;;;12.85;10.48;;;32.30;51.60;;;;;;5056490;28;20391;-46
2021/09/06 11:52:32;;;;;;;14.25;11.07;;;32.70;51.10;;;;;;5057010;28;20037;-46
2021/09/06 11:54:58;;;;;;;12.13;10.50;;;32.40;49.50;;;;;;5054649;28;20108;-47
2021/09/06 11:57:33;;;;;;;12.02;10.25;;;31.80;51.00;;;;;;5041037;28;20017;-46
2021/09/06 11:59:58;;;;;;;14.35;10.70;;;31.10;52.80;;;;;;5058387;28;20024;-48
2021/09/06 12:02:24;;;;;;;13.30;10.45;;;31.40;51.00;;;;;;5052430;28;20601;-48
2021/09/06 12:05:01;;;;;;;13.55;10.23;;;31.10;50.90;;;;;;5059373;28;20020;-47
2021/09/06 12:07:27;;;;;;;13.30;10.93;;;30.50;51.20;;;;;;5067182;28;20039;-46
2021/09/06 12:09:52;;;;;;;12.52;10.65;;;29.70;54.40;;;;;;5066814;28;20488;-48
2021/09/06 12:12:24;;;;;;;11.73;10.13;;;29.60;55.30;;;;;;5063447;28;20036;-46
2021/09/06 12:14:53;;;;;;;15.13;10.20;;;29.30;52.00;;;;;;5054629;28;20036;-46
2021/09/06 12:17:19;;;;;;;13.70;10.82;;;29.20;53.30;;;;;;5050883;28;20032;-49
2021/09/06 12:19:47;;;;;;;13.77;10.18;;;29.10;54.00;;;;;;5055534;28;20434;-47
2021/09/06 12:22:23;;;;;;;12.27;9.57;;;28.90;53.00;;;;;;5045590;28;20035;-46
2021/09/06 12:24:50;;;;;;;12.20;9.50;;;28.90;54.90;;;;;;5047421;28;20029;-45
2021/09/06 12:27:17;;;;;;;13.98;9.93;;;28.80;53.40;;;;;;5047112;28;20021;-47
2021/09/06 12:29:44;;;;;;;12.73;9.77;;;28.20;51.90;;;;;;5046908;28;20135;-46